Time;durP1;ratioP1;P1;durP2;ratioP2;P2;SDS_P1;SDS_P2;PMS_P1;PMS_P2;Temp;Humidity;BMP_temperature;BMP_pressure;BME280_temperature;BME280_humidity;BME280_pressure;Samples;Min_cycle;Max_cycle;Signal;HPM_P1;HPM_P2
2022/05/23 00:00:51;;;;;;;0.00;0.00;;;15.00;70.30;;;;;;5086967;28;20051;-73
2022/05/23 00:03:17;;;;;;;0.00;0.00;;;15.10;70.60;;;;;;5088180;28;20043;-73
2022/05/23 00:05:43;;;;;;;0.00;0.00;;;15.10;70.70;;;;;;5088290;28;20036;-72
2022/05/23 00:08:09;;;;;;;0.00;0.00;;;15.00;70.60;;;;;;5078224;28;20397;-72
2022/05/23 00:10:35;;;;;;;0.00;0.00;;;15.00;70.40;;;;;;5078713;28;20064;-72
2022/05/23 00:13:01;;;;;;;0.03;0.03;;;15.00;70.70;;;;;;5072987;28;20127;-72
2022/05/23 00:15:27;;;;;;;0.03;0.03;;;15.00;70.50;;;;;;5084069;28;20135;-71
2022/05/23 00:17:52;;;;;;;0.00;0.00;;;14.90;70.60;;;;;;5075388;28;20050;-70
2022/05/23 00:20:22;;;;;;;0.00;0.00;;;14.90;70.80;;;;;;5070887;28;20078;-72
2022/05/23 00:22:47;;;;;;;0.00;0.00;;;15.00;70.90;;;;;;5079540;28;20037;-73
2022/05/23 00:25:14;;;;;;;0.00;0.00;;;14.90;70.90;;;;;;5077607;28;20357;-73
2022/05/23 00:27:42;;;;;;;0.00;0.00;;;14.90;70.90;;;;;;5073232;28;20043;-72
2022/05/23 00:30:12;;;;;;;0.00;0.00;;;14.90;70.60;;;;;;5082338;28;20048;-72
2022/05/23 00:35:21;;;;;;;0.00;0.00;;;14.90;70.50;;;;;;5078427;28;20048;-72
2022/05/23 00:37:51;;;;;;;0.08;0.08;;;14.90;70.50;;;;;;5075218;28;20043;-72
2022/05/23 00:40:36;;;;;;;0.03;0.03;;;14.90;70.90;;;;;;5088832;28;20044;-72
2022/05/23 00:43:14;;;;;;;0.00;0.00;;;14.90;70.90;;;;;;5077689;28;20063;-72
2022/05/23 00:45:49;;;;;;;0.00;0.00;;;14.90;70.80;;;;;;5077367;28;20052;-71
2022/05/23 00:48:16;;;;;;;0.00;0.00;;;14.90;70.70;;;;;;5089631;28;20040;-72
2022/05/23 00:50:47;;;;;;;0.03;0.03;;;14.80;70.80;;;;;;5083768;28;20063;-72
2022/05/23 00:53:13;;;;;;;0.00;0.00;;;14.80;70.60;;;;;;5073513;28;20049;-72
2022/05/23 00:55:44;;;;;;;0.00;0.00;;;14.90;70.60;;;;;;5071516;28;20489;-72
2022/05/23 00:58:16;;;;;;;0.00;0.00;;;14.80;70.50;;;;;;5073845;28;20444;-72
2022/05/23 01:00:41;;;;;;;;;;;14.80;70.50;;;;;;5074614;28;20173;-72
2022/05/23 01:03:12;;;;;;;0.00;0.00;;;14.90;70.50;;;;;;5074101;28;19986;-73
2022/05/23 01:05:38;;;;;;;0.00;0.00;;;14.80;70.50;;;;;;5073989;28;20041;-73
2022/05/23 01:08:05;;;;;;;0.00;0.00;;;14.80;70.40;;;;;;5073972;28;20087;-72
2022/05/23 01:10:33;;;;;;;0.00;0.00;;;14.80;70.40;;;;;;5073135;28;20033;-72
2022/05/23 01:12:58;;;;;;;0.00;0.00;;;14.80;70.40;;;;;;5070873;28;20063;-72
2022/05/23 01:15:27;;;;;;;0.00;0.00;;;14.80;70.40;;;;;;5081434;28;20412;-73
2022/05/23 01:17:54;;;;;;;0.00;0.00;;;14.90;70.20;;;;;;5081920;28;20074;-72
2022/05/23 01:20:21;;;;;;;0.00;0.00;;;14.90;70.50;;;;;;5089511;28;20068;-73
2022/05/23 01:23:05;;;;;;;0.00;0.00;;;14.90;70.40;;;;;;5078661;28;20115;-73
2022/05/23 01:25:39;;;;;;;0.00;0.00;;;14.90;70.50;;;;;;5074992;28;20047;-73
2022/05/23 01:28:05;;;;;;;0.00;0.00;;;14.90;70.60;;;;;;5079888;28;20036;-73
2022/05/23 01:30:34;;;;;;;0.00;0.00;;;14.90;70.40;;;;;;5088840;28;20070;-72
2022/05/23 01:33:03;;;;;;;0.00;0.00;;;15.00;70.20;;;;;;5085621;28;20043;-72
2022/05/23 01:35:29;;;;;;;0.00;0.00;;;15.00;70.00;;;;;;5071111;28;20056;-73
2022/05/23 01:37:56;;;;;;;0.00;0.00;;;14.90;70.10;;;;;;5070892;28;20040;-72
2022/05/23 01:40:22;;;;;;;0.00;0.00;;;15.00;70.30;;;;;;5070785;28;20123;-73
2022/05/23 01:42:49;;;;;;;0.10;0.10;;;15.00;70.30;;;;;;5069605;28;20533;-72
2022/05/23 01:45:17;;;;;;;0.00;0.00;;;15.00;70.00;;;;;;5080153;28;20400;-72
2022/05/23 01:47:42;;;;;;;0.00;0.00;;;15.00;69.90;;;;;;5079539;28;20044;-73
2022/05/23 01:50:09;;;;;;;0.00;0.00;;;15.10;70.00;;;;;;5071682;28;20033;-70
2022/05/23 01:52:35;;;;;;;0.00;0.00;;;15.00;70.00;;;;;;5087987;28;20052;-71
2022/05/23 01:55:01;;;;;;;0.00;0.00;;;15.00;69.80;;;;;;5080480;28;20045;-71
2022/05/23 01:57:26;;;;;;;0.00;0.00;;;15.00;69.70;;;;;;5083638;28;20040;-72
2022/05/23 02:02:36;;;;;;;0.00;0.00;;;15.00;69.70;;;;;;5083592;28;20425;-71
2022/05/23 02:05:03;;;;;;;0.00;0.00;;;15.00;69.70;;;;;;5084867;28;20077;-71
2022/05/23 02:07:29;;;;;;;0.00;0.00;;;15.00;69.80;;;;;;5090727;28;20264;-72
2022/05/23 02:09:55;;;;;;;0.00;0.00;;;14.90;69.70;;;;;;5082734;28;20048;-72
2022/05/23 02:12:20;;;;;;;0.00;0.00;;;14.90;69.60;;;;;;5073026;28;20047;-72
2022/05/23 02:14:48;;;;;;;0.00;0.00;;;14.90;69.90;;;;;;5075234;28;20127;-72
2022/05/23 02:17:14;;;;;;;0.00;0.00;;;14.90;69.90;;;;;;5082520;28;20562;-72
2022/05/23 02:19:40;;;;;;;0.00;0.00;;;14.80;70.10;;;;;;5078305;28;20509;-72
2022/05/23 02:22:06;;;;;;;0.00;0.00;;;14.80;70.20;;;;;;5090747;28;20148;-72
2022/05/23 02:24:32;;;;;;;0.00;0.00;;;14.80;70.20;;;;;;5075429;28;20040;-72
2022/05/23 02:26:58;;;;;;;0.00;0.00;;;14.80;70.40;;;;;;5072956;28;20131;-72
2022/05/23 02:29:24;;;;;;;0.00;0.00;;;14.80;70.70;;;;;;5078117;28;20048;-72
2022/05/23 02:31:50;;;;;;;0.00;0.00;;;14.80;70.50;;;;;;5088210;28;20040;-72
2022/05/23 02:34:17;;;;;;;0.00;0.00;;;14.70;70.30;;;;;;5088732;28;20094;-72
2022/05/23 02:36:43;;;;;;;0.00;0.00;;;14.70;70.60;;;;;;5086789;28;20040;-72
2022/05/23 02:39:09;;;;;;;0.00;0.00;;;14.60;70.50;;;;;;5082253;28;20049;-72
2022/05/23 02:41:35;;;;;;;0.00;0.00;;;14.60;70.40;;;;;;5073113;28;20055;-73
2022/05/23 02:44:01;;;;;;;0.00;0.00;;;14.60;70.50;;;;;;5076943;28;20036;-73
2022/05/23 02:46:28;;;;;;;0.00;0.00;;;14.60;70.50;;;;;;5103212;28;20040;-73
2022/05/23 02:48:54;;;;;;;0.00;0.00;;;14.60;70.70;;;;;;5077557;28;20197;-73
2022/05/23 02:51:20;;;;;;;0.00;0.00;;;14.50;70.70;;;;;;5086596;28;20085;-73
2022/05/23 02:53:45;;;;;;;0.00;0.00;;;14.50;70.90;;;;;;5089532;28;20047;-73
2022/05/23 02:56:11;;;;;;;0.00;0.00;;;14.50;71.00;;;;;;5086194;28;20037;-73
2022/05/23 02:58:37;;;;;;;0.00;0.00;;;14.50;71.10;;;;;;5072689;28;20128;-73
2022/05/23 03:01:03;;;;;;;0.00;0.00;;;14.50;71.40;;;;;;5088239;28;20044;-73
2022/05/23 03:03:28;;;;;;;0.00;0.00;;;14.50;71.50;;;;;;5081208;28;20098;-72
2022/05/23 03:05:57;;;;;;;0.00;0.00;;;14.50;71.40;;;;;;5075077;28;20044;-73
2022/05/23 03:08:25;;;;;;;0.00;0.00;;;14.40;71.50;;;;;;5072944;28;20124;-72
2022/05/23 03:10:55;;;;;;;0.00;0.00;;;14.40;71.40;;;;;;5083146;28;20457;-73
2022/05/23 03:13:20;;;;;;;0.00;0.00;;;14.40;71.30;;;;;;5084652;28;20101;-72
2022/05/23 03:15:46;;;;;;;0.00;0.00;;;14.40;71.50;;;;;;5084895;28;20048;-73
2022/05/23 03:18:12;;;;;;;0.00;0.00;;;14.40;71.40;;;;;;5087951;28;20044;-73
2022/05/23 03:20:38;;;;;;;0.00;0.00;;;14.40;71.60;;;;;;5090198;28;20454;-73
2022/05/23 03:28:33;;;;;;;0.00;0.00;;;14.40;71.80;;;;;;5090831;28;20105;-73
2022/05/23 03:30:59;;;;;;;0.00;0.00;;;14.40;71.60;;;;;;5091933;28;20036;-73
2022/05/23 03:33:24;;;;;;;0.00;0.00;;;14.40;71.60;;;;;;5091519;28;20079;-73
2022/05/23 03:35:50;;;;;;;0.00;0.00;;;14.40;71.90;;;;;;5097352;28;20447;-72
2022/05/23 03:38:15;;;;;;;0.00;0.00;;;14.40;71.80;;;;;;5071595;28;20076;-73
2022/05/23 03:40:41;;;;;;;0.00;0.00;;;14.30;72.10;;;;;;5084680;28;20044;-73
2022/05/23 03:43:08;;;;;;;0.00;0.00;;;14.30;71.90;;;;;;5081331;28;20040;-73
2022/05/23 03:45:36;;;;;;;0.00;0.00;;;14.30;71.70;;;;;;5087121;28;20522;-72
2022/05/23 03:48:03;;;;;;;0.00;0.00;;;14.30;71.90;;;;;;5088309;28;20118;-71
2022/05/23 03:50:30;;;;;;;0.00;0.00;;;14.30;72.00;;;;;;5088168;28;20047;-72
2022/05/23 03:52:56;;;;;;;0.00;0.00;;;14.30;71.90;;;;;;5082666;28;20051;-72
2022/05/23 03:55:22;;;;;;;0.00;0.00;;;14.30;71.90;;;;;;5079418;28;20123;-72
2022/05/23 03:57:48;;;;;;;0.00;0.00;;;14.30;72.00;;;;;;5091021;28;20036;-71
2022/05/23 04:00:14;;;;;;;0.00;0.00;;;14.20;72.00;;;;;;5074662;28;20040;-71
2022/05/23 04:02:41;;;;;;;0.00;0.00;;;14.20;71.90;;;;;;5073653;28;20036;-72
2022/05/23 04:05:12;;;;;;;0.00;0.00;;;14.20;72.00;;;;;;5085872;28;20135;-71
2022/05/23 04:07:38;;;;;;;0.00;0.00;;;14.20;72.10;;;;;;5073239;28;20401;-68
2022/05/23 04:10:10;;;;;;;0.00;0.00;;;14.20;72.30;;;;;;5086641;28;20024;-69
2022/05/23 04:12:36;;;;;;;;;;;14.20;72.10;;;;;;5089389;28;20046;-69
2022/05/23 04:15:06;;;;;;;0.00;0.00;;;14.20;72.30;;;;;;5088834;28;19919;-69
2022/05/23 04:17:31;;;;;;;0.00;0.00;;;14.30;72.30;;;;;;5079039;28;20048;-68
2022/05/23 04:19:57;;;;;;;0.00;0.00;;;14.20;72.40;;;;;;5078924;28;20048;-69
2022/05/23 04:22:22;;;;;;;0.00;0.00;;;14.20;72.20;;;;;;5090848;28;20091;-69
2022/05/23 04:24:49;;;;;;;0.00;0.00;;;14.20;72.40;;;;;;5090265;28;20048;-69
2022/05/23 04:27:14;;;;;;;0.00;0.00;;;14.20;72.40;;;;;;5076471;28;20067;-68
2022/05/23 04:29:41;;;;;;;0.00;0.00;;;14.30;72.50;;;;;;5075210;28;20032;-69
2022/05/23 04:35:12;;;;;;;0.00;0.00;;;14.30;72.50;;;;;;5077701;28;20192;-69
2022/05/23 04:37:38;;;;;;;0.00;0.00;;;14.30;72.50;;;;;;5076701;28;20048;-70
2022/05/23 04:40:04;;;;;;;0.00;0.00;;;14.30;72.50;;;;;;5073876;28;20113;-70
2022/05/23 04:42:30;;;;;;;0.00;0.00;;;14.30;72.40;;;;;;5081845;28;20055;-70
2022/05/23 04:44:55;;;;;;;0.00;0.00;;;14.30;72.50;;;;;;5085536;28;20041;-70
2022/05/23 04:50:05;;;;;;;0.00;0.00;;;14.20;72.20;;;;;;5071449;28;20044;-70
2022/05/23 04:52:31;;;;;;;0.00;0.00;;;14.30;72.50;;;;;;5083153;28;20066;-70
2022/05/23 04:54:56;;;;;;;0.15;0.15;;;14.30;72.50;;;;;;5090140;28;20044;-71
2022/05/23 04:57:22;;;;;;;0.00;0.00;;;14.30;72.50;;;;;;5089636;28;20065;-71
2022/05/23 04:59:48;;;;;;;0.00;0.00;;;14.30;72.60;;;;;;5081992;28;20047;-71
2022/05/23 05:02:14;;;;;;;0.00;0.00;;;14.30;72.80;;;;;;5080285;28;20048;-71
2022/05/23 05:04:40;;;;;;;0.00;0.00;;;14.30;72.40;;;;;;5083132;28;20039;-69
2022/05/23 05:07:05;;;;;;;0.00;0.00;;;14.30;72.30;;;;;;5072556;28;20482;-71
2022/05/23 05:09:31;;;;;;;0.00;0.00;;;14.30;72.40;;;;;;5080124;28;20045;-71
2022/05/23 05:11:57;;;;;;;0.00;0.00;;;14.20;72.50;;;;;;5071269;28;20059;-71
2022/05/23 05:14:23;;;;;;;0.00;0.00;;;14.30;72.50;;;;;;5085315;28;20052;-70
2022/05/23 05:16:49;;;;;;;0.00;0.00;;;14.30;72.70;;;;;;5078426;28;20052;-69
2022/05/23 05:19:15;;;;;;;0.00;0.00;;;14.30;72.70;;;;;;5082032;28;20048;-70
2022/05/23 05:21:41;;;;;;;0.00;0.00;;;14.30;72.80;;;;;;5079648;28;20097;-70
2022/05/23 05:24:07;;;;;;;0.00;0.00;;;14.30;72.90;;;;;;5062189;28;20048;-70
2022/05/23 05:26:32;;;;;;;0.00;0.00;;;14.30;73.10;;;;;;5078729;28;20079;-70
2022/05/23 05:28:58;;;;;;;0.00;0.00;;;14.30;73.10;;;;;;5077935;28;20563;-70
2022/05/23 05:31:44;;;;;;;0.00;0.00;;;14.30;73.10;;;;;;5077058;28;20032;-70
2022/05/23 05:34:16;;;;;;;0.00;0.00;;;14.30;73.40;;;;;;5083280;28;20059;-70
2022/05/23 05:36:47;;;;;;;0.00;0.00;;;14.30;73.40;;;;;;5086840;28;20115;-72
2022/05/23 05:39:17;;;;;;;0.00;0.00;;;14.30;73.30;;;;;;5081650;28;20068;-70
2022/05/23 05:42:01;;;;;;;0.00;0.00;;;14.30;73.50;;;;;;5080301;28;20052;-69
2022/05/23 05:44:30;;;;;;;0.00;0.00;;;14.40;73.50;;;;;;5082211;28;20055;-69
2022/05/23 05:46:59;;;;;;;0.00;0.00;;;14.40;73.90;;;;;;5077782;28;20125;-70
2022/05/23 05:49:27;;;;;;;0.00;0.00;;;14.50;74.00;;;;;;5073094;28;20118;-70
2022/05/23 05:51:59;;;;;;;0.00;0.00;;;14.50;74.10;;;;;;5087119;28;20131;-69
2022/05/23 05:54:26;;;;;;;;;;;14.50;73.80;;;;;;5094498;28;21028;-69
2022/05/23 05:56:52;;;;;;;0.00;0.00;;;14.60;73.80;;;;;;5091951;28;19942;-68
2022/05/23 05:59:19;;;;;;;0.00;0.00;;;14.60;73.70;;;;;;5091139;28;20044;-74
2022/05/23 06:01:45;;;;;;;0.00;0.00;;;14.70;73.70;;;;;;5092863;28;20076;-73
2022/05/23 06:04:10;;;;;;;0.00;0.00;;;14.80;73.60;;;;;;5088976;28;20137;-73
2022/05/23 06:12:04;;;;;;;0.00;0.00;;;15.00;73.90;;;;;;5091551;28;20544;-74
2022/05/23 06:14:30;;;;;;;0.10;0.10;;;15.10;73.90;;;;;;5073347;28;20052;-72
2022/05/23 06:16:56;;;;;;;0.00;0.00;;;15.10;73.80;;;;;;5073551;28;20045;-69
2022/05/23 06:19:21;;;;;;;0.00;0.00;;;15.20;74.70;;;;;;5077147;28;20059;-74
2022/05/23 06:21:47;;;;;;;0.00;0.00;;;15.40;74.50;;;;;;5072185;28;20060;-73
2022/05/23 06:24:13;;;;;;;0.00;0.00;;;15.50;73.90;;;;;;5074056;28;20040;-74
2022/05/23 06:26:38;;;;;;;0.00;0.00;;;15.50;73.50;;;;;;5081446;28;20113;-74
2022/05/23 06:29:04;;;;;;;0.00;0.00;;;15.50;73.40;;;;;;5078500;28;20663;-74
2022/05/23 06:31:30;;;;;;;0.00;0.00;;;15.60;73.50;;;;;;5073704;28;20105;-74
2022/05/23 06:33:55;;;;;;;0.00;0.00;;;15.60;73.50;;;;;;5084314;28;20040;-74
2022/05/23 06:36:21;;;;;;;0.00;0.00;;;15.60;73.60;;;;;;5082995;28;20074;-74
2022/05/23 06:38:47;;;;;;;0.00;0.00;;;15.70;73.50;;;;;;5091281;28;20135;-76
2022/05/23 06:41:13;;;;;;;0.00;0.00;;;15.80;73.20;;;;;;5091726;28;20036;-76
2022/05/23 06:43:41;;;;;;;0.00;0.00;;;15.80;73.20;;;;;;5081886;28;20056;-76
2022/05/23 06:46:09;;;;;;;0.00;0.00;;;15.90;73.20;;;;;;5070780;28;20044;-74
2022/05/23 06:48:35;;;;;;;0.32;0.32;;;16.00;73.00;;;;;;5084413;28;20043;-75
2022/05/23 06:51:01;;;;;;;0.00;0.00;;;16.00;73.00;;;;;;5089583;28;20047;-75
2022/05/23 06:53:30;;;;;;;0.00;0.00;;;16.20;73.30;;;;;;5082638;28;20110;-75
2022/05/23 06:55:55;;;;;;;0.00;0.00;;;16.20;73.20;;;;;;5075155;28;20402;-74
2022/05/23 06:58:22;;;;;;;0.00;0.00;;;16.30;72.80;;;;;;5092363;28;20043;-74
2022/05/23 07:00:52;;;;;;;0.00;0.00;;;16.30;72.80;;;;;;5092095;28;20647;-75
2022/05/23 07:03:18;;;;;;;0.00;0.00;;;16.30;72.50;;;;;;5089832;28;20085;-75
2022/05/23 07:14:00;;;;;;;0.00;0.00;;;16.40;73.00;;;;;;5072589;28;20056;-75
2022/05/23 07:16:26;;;;;;;0.00;0.00;;;16.40;73.10;;;;;;5078997;28;20056;-75
2022/05/23 07:18:51;;;;;;;0.00;0.00;;;16.50;72.90;;;;;;5081418;28;20045;-72
2022/05/23 07:21:17;;;;;;;0.38;0.17;;;16.60;72.90;;;;;;5088650;28;20047;-72
2022/05/23 07:23:43;;;;;;;0.00;0.00;;;16.80;73.20;;;;;;5072635;28;20085;-73
2022/05/23 07:26:15;;;;;;;0.00;0.00;;;17.10;72.50;;;;;;5074806;28;20492;-80
2022/05/23 07:28:43;;;;;;;0.10;0.10;;;17.40;71.70;;;;;;5087178;28;20059;-75
2022/05/23 07:31:09;;;;;;;0.10;0.10;;;17.70;71.30;;;;;;5082872;28;20310;-75
2022/05/23 07:33:35;;;;;;;0.00;0.00;;;17.80;70.60;;;;;;5077340;28;20071;-75
2022/05/23 07:36:01;;;;;;;0.00;0.00;;;17.70;70.70;;;;;;5096254;28;20040;-75
2022/05/23 07:38:28;;;;;;;0.00;0.00;;;17.70;70.80;;;;;;5091595;28;20540;-75
2022/05/23 07:40:55;;;;;;;0.00;0.00;;;17.70;70.90;;;;;;5092142;28;20036;-75
2022/05/23 07:43:22;;;;;;;0.00;0.00;;;17.70;71.10;;;;;;5086578;28;20032;-76
2022/05/23 07:45:52;;;;;;;0.00;0.00;;;17.80;70.90;;;;;;5079789;28;20051;-75
2022/05/23 07:48:19;;;;;;;0.00;0.00;;;17.90;70.80;;;;;;5081537;28;20059;-75
2022/05/23 07:50:45;;;;;;;0.00;0.00;;;17.90;71.00;;;;;;5089284;28;20067;-75
2022/05/23 08:01:27;;;;;;;0.00;0.00;;;18.10;71.20;;;;;;5072365;28;20080;-74
2022/05/23 08:03:54;;;;;;;0.00;0.00;;;18.20;71.30;;;;;;5079504;28;20124;-74
2022/05/23 08:06:19;;;;;;;0.00;0.00;;;18.30;71.10;;;;;;5071295;28;20576;-74
2022/05/23 08:08:46;;;;;;;0.00;0.00;;;18.30;71.30;;;;;;5070986;28;20132;-74
2022/05/23 08:11:13;;;;;;;0.00;0.00;;;18.50;71.00;;;;;;5072897;28;20520;-74
2022/05/23 08:13:41;;;;;;;0.00;0.00;;;18.50;70.40;;;;;;5080589;28;20504;-75
2022/05/23 08:16:07;;;;;;;0.00;0.00;;;18.60;70.20;;;;;;5082356;28;20045;-75
2022/05/23 08:18:33;;;;;;;0.00;0.00;;;18.60;70.70;;;;;;5071274;28;20075;-74
2022/05/23 08:20:59;;;;;;;0.00;0.00;;;18.70;70.50;;;;;;5081536;28;20036;-75
2022/05/23 08:23:25;;;;;;;0.00;0.00;;;18.80;70.40;;;;;;5073884;28;20048;-70
2022/05/23 08:25:51;;;;;;;0.00;0.00;;;18.80;70.10;;;;;;5076269;28;20476;-72
2022/05/23 08:28:17;;;;;;;0.00;0.00;;;18.90;69.80;;;;;;5074085;28;20036;-73
2022/05/23 08:30:42;;;;;;;0.00;0.00;;;19.00;69.90;;;;;;5077154;28;20424;-71
2022/05/23 08:33:08;;;;;;;0.00;0.00;;;19.10;69.90;;;;;;5069720;28;20044;-70
2022/05/23 08:35:34;;;;;;;0.00;0.00;;;19.20;69.40;;;;;;5074070;28;20056;-70
2022/05/23 08:38:00;;;;;;;0.00;0.00;;;19.30;69.20;;;;;;5077530;28;20697;-69
2022/05/23 08:40:47;;;;;;;0.00;0.00;;;19.30;68.70;;;;;;5084239;28;20500;-69
2022/05/23 08:43:25;;;;;;;0.00;0.00;;;19.40;68.60;;;;;;5090829;28;20032;-70
2022/05/23 08:45:55;;;;;;;0.00;0.00;;;19.40;68.40;;;;;;5076920;28;20120;-69
2022/05/23 08:48:31;;;;;;;0.00;0.00;;;19.50;68.90;;;;;;5071918;28;20135;-69
2022/05/23 08:51:04;;;;;;;0.00;0.00;;;19.60;68.40;;;;;;5077416;28;20093;-69
2022/05/23 08:53:37;;;;;;;0.00;0.00;;;19.60;67.70;;;;;;5079310;28;20059;-69
2022/05/23 08:56:19;;;;;;;0.13;0.13;;;19.70;68.40;;;;;;5084041;28;20036;-69
2022/05/23 08:58:53;;;;;;;0.00;0.00;;;19.80;68.00;;;;;;5071935;28;20051;-69
2022/05/23 09:01:22;;;;;;;0.00;0.00;;;19.80;68.10;;;;;;5072740;28;20064;-69
2022/05/23 09:04:11;;;;;;;0.00;0.00;;;19.90;68.50;;;;;;5075516;28;20086;-70
2022/05/23 09:06:48;;;;;;;0.00;0.00;;;20.00;68.30;;;;;;5076666;28;20033;-70
2022/05/23 09:09:20;;;;;;;0.00;0.00;;;20.10;67.60;;;;;;5085669;28;20082;-70
2022/05/23 09:11:49;;;;;;;0.00;0.00;;;20.10;67.80;;;;;;5075780;28;20036;-70
2022/05/23 09:14:17;;;;;;;0.00;0.00;;;20.10;68.10;;;;;;5088756;28;20818;-70
2022/05/23 09:16:50;;;;;;;0.00;0.00;;;20.20;68.60;;;;;;5084962;28;20455;-70
2022/05/23 09:19:35;;;;;;;0.00;0.00;;;20.30;68.60;;;;;;5081962;28;20544;-70
2022/05/23 09:22:31;;;;;;;0.00;0.00;;;20.30;68.00;;;;;;5084463;28;20043;-70
2022/05/23 09:25:00;;;;;;;0.00;0.00;;;20.40;67.50;;;;;;5085198;28;20112;-70
2022/05/23 09:27:35;;;;;;;0.00;0.00;;;20.40;67.80;;;;;;5085986;28;20091;-70
2022/05/23 09:30:08;;;;;;;0.00;0.00;;;20.50;67.50;;;;;;5084746;28;20096;-70
2022/05/23 09:32:43;;;;;;;0.00;0.00;;;20.50;67.60;;;;;;5075647;28;20478;-70
2022/05/23 09:35:49;;;;;;;0.00;0.00;;;20.60;67.00;;;;;;5089506;28;20531;-70
2022/05/23 09:38:29;;;;;;;0.55;0.55;;;20.80;67.60;;;;;;5070245;28;20057;-70
2022/05/23 09:40:56;;;;;;;0.30;0.30;;;20.90;67.20;;;;;;5088200;28;20078;-70
2022/05/23 09:49:15;;;;;;;0.00;0.00;;;21.10;66.90;;;;;;5073725;28;20044;-70
2022/05/23 09:52:07;;;;;;;0.00;0.00;;;21.20;67.00;;;;;;5084024;28;20044;-70
2022/05/23 09:54:46;;;;;;;0.00;0.00;;;21.30;66.70;;;;;;5094311;28;20040;-70
2022/05/23 09:57:21;;;;;;;0.00;0.00;;;21.50;65.80;;;;;;5093765;28;20044;-70
2022/05/23 09:59:59;;;;;;;0.00;0.00;;;21.60;65.90;;;;;;5092359;28;20079;-70
2022/05/23 10:02:40;;;;;;;0.00;0.00;;;21.80;65.40;;;;;;5089185;28;20042;-70
2022/05/23 10:05:22;;;;;;;0.00;0.00;;;22.00;64.80;;;;;;5093268;28;20560;-70
2022/05/23 10:07:51;;;;;;;0.10;0.10;;;22.10;63.20;;;;;;5087033;28;20559;-70
2022/05/23 10:10:23;;;;;;;0.13;0.13;;;22.30;63.70;;;;;;5085351;28;20597;-71
2022/05/23 10:12:49;;;;;;;0.00;0.00;;;22.40;63.80;;;;;;5073696;28;20110;-70
2022/05/23 10:15:25;;;;;;;0.00;0.00;;;22.50;63.10;;;;;;5081411;28;20089;-70
2022/05/23 10:18:07;;;;;;;0.00;0.00;;;22.60;60.90;;;;;;5077881;28;20052;-70
2022/05/23 10:20:38;;;;;;;0.00;0.00;;;22.50;61.80;;;;;;5081224;28;20095;-69
2022/05/23 10:23:07;;;;;;;0.10;0.10;;;22.60;62.50;;;;;;5073125;28;20040;-70
2022/05/23 10:25:43;;;;;;;0.00;0.00;;;22.60;63.20;;;;;;5084030;28;20118;-70
2022/05/23 10:28:13;;;;;;;0.00;0.00;;;22.70;62.30;;;;;;5079639;28;20161;-70
2022/05/23 10:30:44;;;;;;;0.00;0.00;;;22.80;62.70;;;;;;5084711;28;20267;-70
2022/05/23 10:33:13;;;;;;;0.00;0.00;;;22.90;62.10;;;;;;5076050;28;20041;-70
2022/05/23 10:35:42;;;;;;;0.00;0.00;;;22.90;62.80;;;;;;5073614;28;20637;-70
2022/05/23 10:43:51;;;;;;;0.28;0.28;;;23.00;61.50;;;;;;5086248;28;20040;-70
2022/05/23 10:46:16;;;;;;;0.00;0.00;;;23.10;61.00;;;;;;5078777;28;20040;-70
2022/05/23 10:49:17;;;;;;;0.00;0.00;;;23.20;62.10;;;;;;5089590;28;20507;-70
2022/05/23 10:52:15;;;;;;;0.00;0.00;;;23.30;61.90;;;;;;5093129;28;20519;-69
2022/05/23 10:54:55;;;;;;;0.00;0.00;;;23.50;62.20;;;;;;5091074;28;20453;-69
2022/05/23 10:57:20;;;;;;;0.00;0.00;;;23.50;61.60;;;;;;5085244;28;20036;-69
2022/05/23 11:00:04;;;;;;;0.00;0.00;;;23.50;59.50;;;;;;5079917;28;20102;-70
2022/05/23 11:02:34;;;;;;;0.00;0.00;;;23.40;60.90;;;;;;5078643;28;20036;-70
2022/05/23 11:05:17;;;;;;;0.00;0.00;;;23.40;61.60;;;;;;5079780;28;20076;-69
2022/05/23 11:08:05;;;;;;;0.00;0.00;;;23.40;61.40;;;;;;5093064;28;20454;-69
2022/05/23 11:11:00;;;;;;;0.00;0.00;;;23.50;61.10;;;;;;5090330;28;20040;-69
2022/05/23 11:13:59;;;;;;;0.00;0.00;;;23.70;58.30;;;;;;5089513;28;20050;-70
2022/05/23 11:16:57;;;;;;;0.00;0.00;;;23.90;59.80;;;;;;5071111;28;20551;-69
2022/05/23 11:19:36;;;;;;;0.00;0.00;;;24.00;59.10;;;;;;5081151;28;20052;-69
2022/05/23 11:22:08;;;;;;;0.00;0.00;;;23.90;58.30;;;;;;5082672;28;20036;-67
2022/05/23 11:24:50;;;;;;;0.00;0.00;;;23.80;59.60;;;;;;5077303;28;20040;-70
2022/05/23 11:35:31;;;;;;;0.00;0.00;;;24.20;60.60;;;;;;5078497;28;20048;-69
2022/05/23 11:38:01;;;;;;;0.00;0.00;;;24.30;58.60;;;;;;5083683;28;20101;-69
2022/05/23 11:40:26;;;;;;;0.00;0.00;;;24.30;58.90;;;;;;5070159;28;20048;-69
2022/05/23 11:43:16;;;;;;;0.00;0.00;;;24.40;60.10;;;;;;5069873;28;20045;-69
2022/05/23 11:46:02;;;;;;;0.00;0.00;;;24.50;57.30;;;;;;5071031;28;20037;-69
2022/05/23 11:48:39;;;;;;;0.70;0.70;;;24.60;57.20;;;;;;5069791;28;20043;-70
2022/05/23 11:51:25;;;;;;;0.00;0.00;;;24.60;54.30;;;;;;5086245;28;20083;-69
2022/05/23 11:54:03;;;;;;;0.00;0.00;;;24.60;56.20;;;;;;5088758;28;20054;-69
2022/05/23 11:56:39;;;;;;;0.00;0.00;;;24.70;56.00;;;;;;5073707;28;20048;-70
2022/05/23 11:59:07;;;;;;;0.00;0.00;;;24.80;55.70;;;;;;5066581;28;20040;-69
2022/05/23 12:01:34;;;;;;;0.00;0.00;;;24.80;53.70;;;;;;5090146;28;20338;-69
2022/05/23 12:03:59;;;;;;;0.00;0.00;;;24.90;55.00;;;;;;5088903;28;20040;-70
2022/05/23 12:06:25;;;;;;;0.00;0.00;;;25.10;55.00;;;;;;5076857;28;20131;-69
2022/05/23 12:09:12;;;;;;;0.08;0.08;;;25.20;55.20;;;;;;5089163;28;20052;-69
2022/05/23 12:11:43;;;;;;;3.17;1.13;;;25.20;53.20;;;;;;5084502;28;20127;-69
2022/05/23 12:14:21;;;;;;;0.00;0.00;;;25.30;53.90;;;;;;5079564;28;20489;-70
2022/05/23 12:16:49;;;;;;;0.00;0.00;;;25.40;53.80;;;;;;5076430;28;20134;-70
2022/05/23 12:19:29;;;;;;;0.00;0.00;;;25.50;54.80;;;;;;5090379;28;20047;-69
2022/05/23 12:22:19;;;;;;;0.00;0.00;;;25.40;52.80;;;;;;5078384;28;20056;-70
2022/05/23 12:25:07;;;;;;;0.00;0.00;;;25.30;51.70;;;;;;5068993;28;20047;-69
2022/05/23 12:27:36;;;;;;;0.10;0.10;;;25.10;54.20;;;;;;5069838;28;20047;-69
2022/05/23 12:30:24;;;;;;;0.00;0.00;;;25.00;53.10;;;;;;5072909;28;20074;-69
2022/05/23 12:32:58;;;;;;;0.00;0.00;;;24.80;54.40;;;;;;5075541;28;20056;-69
2022/05/23 12:35:30;;;;;;;0.00;0.00;;;24.60;55.80;;;;;;5079837;28;20047;-70
2022/05/23 12:38:25;;;;;;;0.00;0.00;;;24.50;56.60;;;;;;5083513;28;20123;-69
2022/05/23 12:41:14;;;;;;;0.10;0.10;;;24.50;57.20;;;;;;5068086;28;20429;-69
2022/05/23 12:43:49;;;;;;;0.00;0.00;;;24.40;57.80;;;;;;5069306;28;20070;-69
2022/05/23 12:46:32;;;;;;;0.00;0.00;;;24.20;54.70;;;;;;5069461;28;20044;-69
2022/05/23 12:49:23;;;;;;;0.00;0.00;;;24.10;56.20;;;;;;5069295;28;20503;-69
2022/05/23 12:52:40;;;;;;;0.00;0.00;;;24.00;55.60;;;;;;5069313;28;20112;-69
2022/05/23 12:55:15;;;;;;;0.00;0.00;;;23.80;58.10;;;;;;5069071;28;20048;-69
2022/05/23 12:58:04;;;;;;;0.00;0.00;;;23.80;59.40;;;;;;5068095;28;20041;-69
2022/05/23 13:00:49;;;;;;;0.00;0.00;;;23.60;59.80;;;;;;5069296;28;20093;-69
2022/05/23 13:03:24;;;;;;;0.00;0.00;;;23.50;60.20;;;;;;5069597;28;20170;-68
2022/05/23 13:06:24;;;;;;;0.00;0.00;;;23.40;60.40;;;;;;5068926;28;20550;-69
2022/05/23 13:09:11;;;;;;;0.00;0.00;;;23.30;61.30;;;;;;5051316;28;20048;-69
2022/05/23 13:11:50;;;;;;;0.00;0.00;;;23.20;63.40;;;;;;5065484;28;20063;-69
2022/05/23 13:14:16;;;;;;;0.00;0.00;;;23.10;63.10;;;;;;5068171;28;20493;-69
2022/05/23 13:16:55;;;;;;;0.00;0.00;;;23.00;64.30;;;;;;5069094;28;20047;-70
2022/05/23 13:22:22;;;;;;;0.00;0.00;;;22.80;65.80;;;;;;5069367;28;20053;-70
2022/05/23 13:24:55;;;;;;;0.00;0.00;;;22.60;65.80;;;;;;5069248;28;20048;-70
2022/05/23 13:27:30;;;;;;;0.00;0.00;;;22.50;65.40;;;;;;5069290;28;20602;-70
2022/05/23 13:29:59;;;;;;;0.00;0.00;;;22.50;64.80;;;;;;5069175;28;20143;-69
2022/05/23 13:32:26;;;;;;;0.00;0.00;;;22.50;64.90;;;;;;5069013;28;20096;-70
2022/05/23 13:34:53;;;;;;;0.00;0.00;;;22.50;64.30;;;;;;5069166;28;20489;-67
2022/05/23 13:37:31;;;;;;;0.00;0.00;;;22.50;64.80;;;;;;5069292;28;20124;-69
2022/05/23 13:40:10;;;;;;;0.00;0.00;;;22.50;65.10;;;;;;5069118;28;20069;-69
2022/05/23 13:42:36;;;;;;;0.00;0.00;;;22.50;65.20;;;;;;5077954;28;20040;-69
2022/05/23 13:45:18;;;;;;;0.03;0.03;;;22.60;65.60;;;;;;5080497;28;20397;-70
2022/05/23 13:47:46;;;;;;;;;;;22.60;64.90;;;;;;5069664;28;20507;-70
2022/05/23 13:50:23;;;;;;;0.00;0.00;;;22.70;64.70;;;;;;5068856;28;19921;-70
2022/05/23 13:52:54;;;;;;;0.00;0.00;;;22.70;64.30;;;;;;5068825;28;20084;-70
2022/05/23 13:55:30;;;;;;;0.00;0.00;;;22.70;63.30;;;;;;5072368;28;20125;-70
2022/05/23 13:58:11;;;;;;;0.00;0.00;;;22.70;62.60;;;;;;5072540;28;20413;-70
2022/05/23 14:00:45;;;;;;;0.00;0.00;;;22.60;61.20;;;;;;5072489;28;20080;-70
2022/05/23 14:03:17;;;;;;;0.00;0.00;;;22.60;61.00;;;;;;5054753;28;20076;-70
2022/05/23 14:05:48;;;;;;;0.00;0.00;;;22.60;60.10;;;;;;5072533;28;20489;-70
2022/05/23 14:08:24;;;;;;;0.00;0.00;;;22.50;59.50;;;;;;5072238;28;20051;-70